Plymouth Light

42° 00' 12"N, 70° 36' 04"W, Elevation 54 ft.
Eastern Time

Hourly observations for the last 72 hours

Date Time Temperature (°F) Humi-
dity

(%)
Wind
(mph)
Pressure Rain (in) Sun
(W/m2)
ET
(in)
Air Dew 6 Hour 1 Hr 3 Hr 6 Hr Day
Alt
(in)
Sea
Level

(mb)
Max Min
15 18:00 41.9 27.3 56 WNW 18 G 32 29.77 1008.2 0.00 0 0.095
15 17:00 42.9 29.1 58 NW 20 G 32 29.71 1006.2 0.00 0 0.091
15 16:00 44.9 28.3 52 WNW 18 G 31 29.67 1004.6 0.00 11 0.086
15 15:00 45.7 28.6 51 WNW 25 G 33 29.63 1003.5 0.00 51 0.079
15 14:00 46.2 29.5 52 WNW 18 G 40 29.60 1002.4 0.00 70 0.071
15 13:00 46.5 29.3 47.5 43.2 51 WNW 20 G 34 29.56 1001.1 0.00 120 0.060
15 12:00 47.2 30.9 53 WNW 23 G 37 29.54 1000.3 0.00 220 0.046
15 11:00 46.2 31.4 56 WNW 25 G 40 29.52 999.7 0.00 436 0.034
15 10:00 44.9 31.9 60 WNW 24 G 42 29.52 999.6 0.00 167 0.026
15 09:00 44.6 32.0 61 WNW 28 G 41 29.48 998.3 0.00 267 0.018
15 08:00 43.4 34.6 71 W 22 G 36 29.43 996.8 0.00 100 0.014
15 07:00 43.6 35.2 49.1 43.1 72 W 21 G 36 29.40 995.5 0.00 0 0.011
15 06:00 43.2 35.8 75 W 21 G 31 29.36 994.3 0.00 0 0.008
15 05:00 43.4 37.0 78 W 18 G 26 29.32 993.0 0.00 0 0.006
15 04:00 46.0 40.2 80 W 20 G 31 29.28 991.6 0.00 0 0.004
15 03:00 47.1 43.1 86 W 12 G 18 29.24 990.2 0.00 0 0.003
15 02:00 48.2 43.9 85 WSW 13 G 25 29.20 988.9 0.00 0 0.002
15 01:00 49.0 44.7 56.1 49.0 85 SW 20 G 30 29.17 987.8 0.00 0 0.000
15 00:00 50.6 46.3 85 WSW 22 G 40 29.14 986.8 1.08 0 0.010
14 23:00 50.9 49.2 94 WSW 15 G 23 29.12 986.3 1.08 0 0.009
14 22:00 51.9 51.1 97 WSW 14 G 30 29.12 986.1 1.08 0 0.009
14 21:00 53.8 53.2 98 SW 20 G 31 29.12 986.0 1.08 0 0.009
14 20:00 54.7 54.4 99 SSW 22 G 32 29.12 986.3 1.08 0 0.009
14 19:00 55.1 54.8 56.5 52.8 99 SSW 21 G 31 29.14 986.9 0.01 0.01 0.01 1.08 0 0.009
14 18:00 55.5 55.2 99 SSW 18 G 28 29.18 988.2 1.07 0 0.009
14 17:00 54.8 54.5 99 SSW 15 G 25 29.22 989.5 1.07 0 0.009
14 16:00 54.7 54.4 99 SSW 15 G 21 29.25 990.6 1.07 0 0.009
14 15:00 53.6 53.3 99 SSW 14 G 18 29.27 991.2 1.07 26 0.008
14 14:00 54.2 53.9 99 SSW 12 G 15 29.29 991.8 1.07 62 0.006
14 13:00 54.2 53.9 57.3 48.1 99 SW 13 G 17 29.32 992.9 0.01 0.21 1.07 76 0.004
14 12:00 54.4 54.1 99 SSW 14 G 20 29.35 994.0 1.07 84 0.002
14 11:00 55.5 55.2 99 SSW 24 G 36 29.35 993.8 0.01 1.07 98 0.001
14 10:00 56.2 55.9 99 S 24 G 34 29.41 995.9 0.06 0.20 1.06 39 0.000
14 09:00 49.0 48.7 99 S 18 G 24 29.49 998.7 0.07 1.00 42 0.000
14 08:00 49.4 49.1 99 SSE 22 G 29 29.54 1000.4 0.07 0.93 11 0.000
14 07:00 48.9 48.6 50.7 46.3 99 SSE 23 G 32 29.57 1001.5 0.08 0.33 0.84 0.86 0 0.000
14 06:00 50.2 49.9 99 S 31 G 45 29.63 1003.3 0.13 0.78 0 0.000
14 05:00 48.9 48.6 99 S 23 G 29 29.69 1005.3 0.12 0.65 0 0.000
14 04:00 48.3 47.8 98 SSE 15 G 27 29.75 1007.6 0.16 0.51 0.53 0 0.000
14 03:00 47.8 47.3 98 SE 17 G 23 29.83 1010.1 0.23 0.37 0 0.000
14 02:00 46.9 46.4 98 SE 14 G 17 29.92 1013.3 0.12 0.14 0 0.000
14 01:00 46.6 45.8 46.6 44.8 97 SE 11 G 13 29.98 1015.4 0.02 0.03 0.05 0.02 0 0.000
14 00:00 46.0 45.2 97 SE 13 G 17 30.02 1016.8 0.01 0.04 0 0.032
13 23:00 46.2 45.1 96 SE 11 G 13 30.09 1018.9 0.03 0 0.032
13 22:00 45.8 44.7 96 SSE 10 G 12 30.12 1020.1 0.02 0.03 0 0.032
13 21:00 45.2 44.4 97 SE 11 G 13 30.17 1021.6 0.01 0.03 0 0.032
13 20:00 44.9 43.8 96 ESE 9 G 13 30.20 1022.9 0.01 0.02 0 0.032
13 19:00 44.9 43.6 45.0 43.5 95 SE 13 G 16 30.23 1023.6 0.01 0 0.032
13 18:00 44.6 43.0 94 ESE 10 G 13 30.25 1024.5 0.01 0 0.032
13 17:00 44.7 42.8 93 ESE 8 G 11 30.28 1025.5 0.01 0 0.032
13 16:00 44.2 42.3 93 SSE 7 G 11 30.30 1026.0 0.01 0 0.031
13 15:00 44.1 41.9 92 SSE 11 G 16 30.32 1026.7 0.01 18 0.030
13 14:00 43.8 41.1 90 S 9 G 13 30.34 1027.4 0.01 40 0.028
13 13:00 43.6 40.0 43.6 36.7 87 S 9 G 11 30.37 1028.5 0.01 0.01 93 0.026
13 12:00 42.9 39.3 87 S 13 G 19 30.39 1029.0 0.01 121 0.022
13 11:00 42.0 37.8 85 S 15 G 20 30.43 1030.5 0.01 441 0.017
13 10:00 39.4 35.0 84 S 11 G 14 30.45 1031.3 0.01 0.01 172 0.013
13 09:00 38.4 33.4 82 S 12 G 16 30.46 1031.6 0.01 0.01 155 0.010
13 08:00 37.1 32.4 83 S 13 G 16 30.49 1032.4 0.00 54 0.008
13 07:00 36.9 31.6 37.6 31.1 81 S 13 G 18 30.50 1032.9 0.00 0 0.006
13 06:00 36.3 31.0 81 S 15 G 23 30.51 1033.3 0.00 0 0.005
13 05:00 34.3 28.8 80 S 11 G 17 30.55 1034.6 0.00 0 0.004
13 04:00 33.8 28.0 79 S 11 G 15 30.58 1035.5 0.00 0 0.003
13 03:00 33.0 25.6 74 S 8 G 12 30.60 1036.2 0.00 0 0.002
13 02:00 32.3 24.3 72 S 10 G 15 30.62 1036.9 0.00 0 0.001
13 01:00 31.1 23.5 31.2 28.2 73 S 8 G 12 30.62 1037.1 0.00 0 0.000
13 00:00 29.4 20.8 70 SW 6 G 9 30.64 1037.5 0.00 0 0.048
12 23:00 29.6 21.0 70 SW 5 G 10 30.66 1038.2 0.00 0 0.047
12 22:00 29.5 20.6 69 SW 5 G 7 30.66 1038.3 0.00 0 0.046
12 21:00 29.2 19.6 67 SW 4 G 7 30.67 1038.7 0.00 0 0.045
12 20:00 29.0 20.4 70 NW 3 G 5 30.68 1038.9 0.00 0 0.045
12 19:00 28.2 17.6 29.8 27.6 64 NW 2 G 3 30.68 1039.1 0.00 0 0.045

Data generated by WxSolution Version 1.9.1.1, Build 2017.11.27.